Time;durP1;ratioP1;P1;durP2;ratioP2;P2;SDS_P1;SDS_P2;PMS_P1;PMS_P2;Temp;Humidity;BMP_temperature;BMP_pressure;BME280_temperature;BME280_humidity;BME280_pressure;Samples;Min_cycle;Max_cycle;Signal;HPM_P1;HPM_P2
2022/05/17 00:00:36;;;;;;;3.00;2.90;;;18.30;1.00;;;;;;6188622;28;20371;-55
2022/05/17 00:03:39;;;;;;;4.50;3.57;;;18.20;1.00;;;;;;6183594;28;20315;-56
2022/05/17 00:06:48;;;;;;;3.30;3.20;;;18.20;1.00;;;;;;6185479;28;20615;-54
2022/05/17 00:09:50;;;;;;;4.67;3.30;;;18.20;1.00;;;;;;6190477;28;20362;-55
2022/05/17 00:12:54;;;;;;;2.93;2.83;;;18.20;1.00;;;;;;6184435;28;20327;-55
2022/05/17 00:16:01;;;;;;;3.33;3.00;;;18.20;1.00;;;;;;6189884;28;20236;-55
2022/05/17 00:19:04;;;;;;;3.47;3.30;;;18.20;1.00;;;;;;6181532;28;20252;-55
2022/05/17 00:22:08;;;;;;;3.67;3.40;;;18.20;1.00;;;;;;6179674;28;20267;-54
2022/05/17 00:25:15;;;;;;;8.47;3.63;;;18.20;1.00;;;;;;6185630;28;20271;-55
2022/05/17 00:28:21;;;;;;;4.93;3.63;;;18.20;1.00;;;;;;6178316;28;20245;-55
2022/05/17 00:31:27;;;;;;;3.57;3.30;;;18.20;1.00;;;;;;6180795;28;20697;-53
2022/05/17 00:34:31;;;;;;;6.07;3.67;;;18.20;1.00;;;;;;6183142;28;20654;-53
2022/05/17 00:37:34;;;;;;;8.23;3.50;;;18.20;1.00;;;;;;6184846;28;20736;-55
2022/05/17 00:40:36;;;;;;;3.43;3.13;;;18.10;1.00;;;;;;6181651;28;20360;-54
2022/05/17 00:47:11;;;;;;;3.70;3.40;;;17.90;1.00;;;;;;6176424;28;20244;-55
2022/05/17 00:50:23;;;;;;;5.33;3.47;;;17.80;1.00;;;;;;6183021;28;20236;-54
2022/05/17 00:53:31;;;;;;;6.23;3.30;;;17.70;1.00;;;;;;6168620;28;20615;-56
2022/05/17 00:56:38;;;;;;;3.67;3.37;;;17.60;1.00;;;;;;6181716;28;20651;-55
2022/05/17 00:59:41;;;;;;;3.73;3.20;;;17.50;1.00;;;;;;6183333;28;20377;-55
2022/05/17 01:02:49;;;;;;;4.10;3.70;;;17.40;1.00;;;;;;6179724;28;20240;-65
2022/05/17 01:05:55;;;;;;;5.73;3.20;;;17.40;1.00;;;;;;6184678;28;20507;-55
2022/05/17 01:09:04;;;;;;;3.97;3.77;;;17.30;1.00;;;;;;6185880;28;20367;-61
2022/05/17 01:12:08;;;;;;;3.90;3.60;;;17.20;1.00;;;;;;6176722;28;20264;-55
2022/05/17 01:15:11;;;;;;;4.47;3.70;;;17.20;1.00;;;;;;6183204;28;20387;-54
2022/05/17 01:18:16;;;;;;;3.70;3.40;;;17.20;1.00;;;;;;6178627;28;20229;-54
2022/05/17 01:21:20;;;;;;;4.30;3.87;;;17.10;1.00;;;;;;6182816;28;20642;-55
2022/05/17 01:24:24;;;;;;;4.60;4.20;;;17.10;1.00;;;;;;6181675;28;20380;-55
2022/05/17 01:27:33;;;;;;;5.03;4.60;;;17.00;1.00;;;;;;6178917;28;20270;-55
2022/05/17 01:30:36;;;;;;;5.03;4.73;;;17.10;1.00;;;;;;6182892;28;20324;-55
2022/05/17 01:33:41;;;;;;;8.77;6.00;;;17.00;1.00;;;;;;6183563;28;20232;-55
2022/05/17 01:36:48;;;;;;;6.53;5.90;;;16.90;1.00;;;;;;6176969;28;20276;-55
2022/05/17 01:39:50;;;;;;;6.93;6.33;;;16.90;1.00;;;;;;6186327;28;20231;-54
2022/05/17 01:42:54;;;;;;;6.50;5.90;;;16.90;1.00;;;;;;6177068;28;20586;-55
2022/05/17 01:45:57;;;;;;;6.60;6.07;;;16.80;1.00;;;;;;6173281;28;20276;-56
2022/05/17 01:49:04;;;;;;;10.97;6.77;;;16.80;1.00;;;;;;6178905;28;20236;-56
2022/05/17 01:52:09;;;;;;;6.23;5.63;;;16.70;1.00;;;;;;6181586;28;20582;-55
2022/05/17 01:55:12;;;;;;;6.00;5.13;;;16.70;1.00;;;;;;6175526;28;20234;-56
2022/05/17 01:58:14;;;;;;;5.60;5.17;;;16.60;1.00;;;;;;6180090;28;20271;-55
2022/05/17 02:01:17;;;;;;;5.97;5.40;;;16.70;1.00;;;;;;6177399;28;20284;-55
2022/05/17 02:04:21;;;;;;;5.93;5.40;;;16.50;1.00;;;;;;6182134;28;20244;-56
2022/05/17 02:07:25;;;;;;;5.60;5.20;;;16.50;1.00;;;;;;6174297;28;20769;-56
2022/05/17 02:10:29;;;;;;;6.00;5.50;;;16.50;1.00;;;;;;6181516;28;20306;-54
2022/05/17 02:13:32;;;;;;;6.03;5.53;;;16.40;1.00;;;;;;6173715;28;20289;-56
2022/05/17 02:16:36;;;;;;;6.30;5.43;;;16.40;1.00;;;;;;6182675;28;20243;-54
2022/05/17 02:19:39;;;;;;;5.63;5.20;;;16.40;1.00;;;;;;6171038;28;20288;-54
2022/05/17 02:22:43;;;;;;;5.97;5.40;;;16.30;1.00;;;;;;6189295;28;20312;-55
2022/05/17 02:25:46;;;;;;;6.77;5.53;;;16.20;1.00;;;;;;6146833;28;20383;-55
2022/05/17 02:28:48;;;;;;;5.47;5.00;;;16.20;1.00;;;;;;6176336;28;20232;-54
2022/05/17 02:31:54;;;;;;;5.60;5.10;;;16.10;1.00;;;;;;6181650;28;20232;-54
2022/05/17 02:34:57;;;;;;;5.20;4.90;;;16.10;1.00;;;;;;6180270;28;20775;-54
2022/05/17 02:38:02;;;;;;;5.20;4.90;;;16.00;1.00;;;;;;6177511;28;20240;-54
2022/05/17 02:41:05;;;;;;;4.67;4.33;;;16.00;1.00;;;;;;6182309;28;20487;-55
2022/05/17 02:44:07;;;;;;;5.53;4.53;;;15.90;1.00;;;;;;6182500;28;20410;-55
2022/05/17 02:47:11;;;;;;;5.27;4.70;;;15.80;1.00;;;;;;6174490;28;20853;-55
2022/05/17 02:50:14;;;;;;;4.53;4.20;;;15.90;1.00;;;;;;6178543;28;20240;-53
2022/05/17 02:53:18;;;;;;;5.30;4.80;;;15.70;1.00;;;;;;6180307;28;20250;-55
2022/05/17 02:56:21;;;;;;;7.10;5.13;;;15.80;1.00;;;;;;6175104;28;20674;-54
2022/05/17 02:59:23;;;;;;;5.37;4.77;;;15.70;8.90;;;;;;6165273;28;20607;-55
2022/05/17 03:02:26;;;;;;;7.77;4.40;;;15.80;19.10;;;;;;6181622;28;20273;-54
2022/05/17 03:05:29;;;;;;;5.27;4.70;;;15.70;78.00;;;;;;6179647;28;20342;-55
2022/05/17 03:08:33;;;;;;;4.80;4.40;;;15.70;99.90;;;;;;6180400;28;20708;-56
2022/05/17 03:11:37;;;;;;;7.83;5.00;;;15.70;99.90;;;;;;6172723;28;20395;-54
2022/05/17 03:14:41;;;;;;;5.43;5.00;;;15.60;99.90;;;;;;6179443;28;20773;-56
2022/05/17 03:17:43;;;;;;;5.50;5.00;;;15.60;99.90;;;;;;6175680;28;20236;-55
2022/05/17 03:20:48;;;;;;;5.57;4.77;;;15.60;99.90;;;;;;6165561;28;20232;-54
2022/05/17 03:23:53;;;;;;;5.63;5.33;;;15.60;99.90;;;;;;6180308;28;20240;-54
2022/05/17 03:26:56;;;;;;;6.37;5.57;;;15.50;99.90;;;;;;6173488;28;20248;-55
2022/05/17 03:29:59;;;;;;;5.10;4.87;;;15.50;99.90;;;;;;6173229;28;20273;-54
2022/05/17 03:33:02;;;;;;;5.40;5.00;;;15.50;99.90;;;;;;6167745;28;20373;-53
2022/05/17 03:36:10;;;;;;;5.83;5.33;;;15.50;99.90;;;;;;6177067;28;20254;-55
2022/05/17 03:39:14;;;;;;;5.30;4.80;;;15.40;99.90;;;;;;6174892;28;20354;-55
2022/05/17 03:42:16;;;;;;;6.63;5.27;;;15.40;99.90;;;;;;6176288;28;20676;-55
2022/05/17 03:45:20;;;;;;;6.40;5.83;;;15.40;99.90;;;;;;6179606;28;20393;-53
2022/05/17 03:48:27;;;;;;;6.20;5.40;;;15.30;99.90;;;;;;6170804;28;20267;-55
2022/05/17 03:51:30;;;;;;;7.27;5.87;;;15.30;99.90;;;;;;6179815;28;20370;-56
2022/05/17 03:54:34;;;;;;;6.93;5.70;;;15.30;99.90;;;;;;6180309;28;20246;-56
2022/05/17 03:57:37;;;;;;;5.80;5.30;;;15.20;99.90;;;;;;6176169;28;20256;-54
2022/05/17 04:00:40;;;;;;;6.07;5.47;;;15.20;99.90;;;;;;6179223;28;20335;-55
2022/05/17 04:03:43;;;;;;;5.50;5.00;;;15.10;99.90;;;;;;6184851;28;20248;-53
2022/05/17 04:06:47;;;;;;;5.50;5.10;;;15.10;99.90;;;;;;6173439;28;20252;-53
2022/05/17 04:09:53;;;;;;;5.77;5.37;;;15.00;99.90;;;;;;6187724;28;20315;-56
2022/05/17 04:12:57;;;;;;;8.07;5.07;;;14.90;99.90;;;;;;6181336;28;20268;-55
2022/05/17 04:16:00;;;;;;;5.77;5.27;;;14.80;99.90;;;;;;6184176;28;20244;-55
2022/05/17 04:19:04;;;;;;;5.77;5.30;;;14.80;99.90;;;;;;6167511;28;20785;-50
2022/05/17 04:22:08;;;;;;;9.43;5.97;;;14.70;99.90;;;;;;6183673;28;20348;-55
2022/05/17 04:25:13;;;;;;;6.23;5.57;;;14.60;99.90;;;;;;6185234;28;20294;-55
2022/05/17 04:28:21;;;;;;;5.23;4.73;;;14.60;99.90;;;;;;6177186;28;20244;-54
2022/05/17 04:31:23;;;;;;;6.63;5.17;;;14.60;99.90;;;;;;6186966;28;20293;-55
2022/05/17 04:34:26;;;;;;;5.50;5.10;;;14.60;99.90;;;;;;6177946;28;20874;-55
2022/05/17 04:37:29;;;;;;;6.77;5.60;;;14.60;99.90;;;;;;6179940;28;20486;-55
2022/05/17 04:40:33;;;;;;;5.20;4.90;;;14.60;99.90;;;;;;6184571;28;20239;-56
2022/05/17 04:43:38;;;;;;;5.77;5.13;;;14.50;99.90;;;;;;6178235;28;20484;-55
2022/05/17 04:46:40;;;;;;;7.37;5.40;;;14.50;99.90;;;;;;6185703;28;20404;-55
2022/05/17 04:49:43;;;;;;;6.00;5.60;;;14.50;99.90;;;;;;6182946;28;20334;-55
2022/05/17 04:52:47;;;;;;;6.03;4.80;;;14.50;99.90;;;;;;6179075;28;20351;-55
2022/05/17 04:55:51;;;;;;;6.60;5.80;;;14.40;99.90;;;;;;6179411;28;20701;-55
2022/05/17 04:58:54;;;;;;;6.27;5.53;;;14.40;99.90;;;;;;6182393;28;20606;-54
2022/05/17 05:01:57;;;;;;;6.03;5.50;;;14.40;99.90;;;;;;6181361;28;20381;-55
2022/05/17 05:05:00;;;;;;;6.37;5.87;;;14.40;99.90;;;;;;6180641;28;20612;-54
2022/05/17 05:08:03;;;;;;;6.20;5.60;;;14.50;99.90;;;;;;6184332;28;20740;-54
2022/05/17 05:11:08;;;;;;;6.00;5.60;;;14.40;99.90;;;;;;6177317;28;20390;-54
2022/05/17 05:14:11;;;;;;;6.40;5.97;;;14.40;99.90;;;;;;6182971;28;20618;-55
2022/05/17 05:17:13;;;;;;;5.53;5.17;;;14.40;99.90;;;;;;6157130;28;20297;-54
2022/05/17 05:20:17;;;;;;;6.70;6.10;;;14.50;99.90;;;;;;6183648;28;20635;-54
2022/05/17 05:23:20;;;;;;;5.93;5.40;;;14.50;99.90;;;;;;6178138;28;20258;-53
2022/05/17 05:26:24;;;;;;;6.90;5.83;;;14.50;99.90;;;;;;6177516;28;20309;-53
2022/05/17 05:29:27;;;;;;;7.63;5.93;;;14.40;99.90;;;;;;6170053;28;20266;-55
2022/05/17 05:32:30;;;;;;;6.80;5.90;;;14.40;99.90;;;;;;6184884;28;20267;-55
2022/05/17 05:35:37;;;;;;;6.47;5.80;;;14.50;99.90;;;;;;6199706;28;20256;-54
2022/05/17 05:38:40;;;;;;;6.40;5.73;;;14.50;99.90;;;;;;6180732;28;20240;-54
2022/05/17 05:41:44;;;;;;;8.20;5.90;;;14.50;99.90;;;;;;6181984;28;20724;-54
2022/05/17 05:44:47;;;;;;;7.80;5.87;;;14.40;99.90;;;;;;6184786;28;20248;-54
2022/05/17 05:47:50;;;;;;;7.50;5.87;;;14.50;99.90;;;;;;6184130;28;20246;-53
2022/05/17 05:50:53;;;;;;;10.73;6.90;;;14.40;99.90;;;;;;6183717;28;20240;-54
2022/05/17 05:53:56;;;;;;;7.10;6.40;;;14.50;99.90;;;;;;6184541;28;20773;-53
2022/05/17 05:57:01;;;;;;;6.40;5.60;;;14.50;99.90;;;;;;6169930;28;20336;-55
2022/05/17 06:00:06;;;;;;;7.37;6.77;;;14.60;99.90;;;;;;6177047;28;20252;-54
2022/05/17 06:03:10;;;;;;;7.80;7.00;;;14.60;99.90;;;;;;6191781;28;20329;-54
2022/05/17 06:06:14;;;;;;;7.63;7.03;;;14.60;99.90;;;;;;6199031;28;20235;-54
2022/05/17 06:09:17;;;;;;;7.93;7.23;;;14.60;99.90;;;;;;6192953;28;20351;-55
2022/05/17 06:12:21;;;;;;;8.30;7.50;;;14.70;99.90;;;;;;6174436;28;20245;-54
2022/05/17 06:15:24;;;;;;;8.40;7.20;;;14.70;99.90;;;;;;6162747;28;20386;-54
2022/05/17 06:18:28;;;;;;;7.73;6.60;;;14.70;99.90;;;;;;6162484;28;20268;-53
2022/05/17 06:21:31;;;;;;;7.00;6.53;;;14.80;99.90;;;;;;6179435;28;20326;-55
2022/05/17 06:24:34;;;;;;;7.50;6.87;;;14.80;99.90;;;;;;6186159;28;20743;-55
2022/05/17 06:27:39;;;;;;;9.03;7.23;;;14.70;99.90;;;;;;6184189;28;20338;-55
2022/05/17 06:30:42;;;;;;;8.03;6.93;;;14.70;99.90;;;;;;6182548;28;20863;-55
2022/05/17 06:33:45;;;;;;;9.70;7.80;;;14.70;99.90;;;;;;6180524;28;20712;-55
2022/05/17 06:36:52;;;;;;;7.83;6.73;;;14.80;99.90;;;;;;6202771;28;20250;-54
2022/05/17 06:39:56;;;;;;;8.37;7.57;;;14.80;99.90;;;;;;6181871;28;20280;-53
2022/05/17 06:43:00;;;;;;;8.33;7.53;;;14.80;99.90;;;;;;6183536;28;20483;-55
2022/05/17 06:46:04;;;;;;;8.97;7.40;;;14.80;99.90;;;;;;6183984;28;20629;-55
2022/05/17 06:49:06;;;;;;;7.87;6.70;;;14.80;99.90;;;;;;6164083;28;20854;-54
2022/05/17 06:52:10;;;;;;;12.70;7.87;;;14.90;99.90;;;;;;6159306;28;20367;-55
2022/05/17 06:55:16;;;;;;;7.20;6.50;;;15.00;99.90;;;;;;6160442;28;20681;-55
2022/05/17 06:58:20;;;;;;;7.90;6.90;;;15.00;99.90;;;;;;6159147;28;20700;-54
2022/05/17 07:01:23;;;;;;;9.10;7.07;;;15.00;99.90;;;;;;6160274;28;20322;-53
2022/05/17 07:04:26;;;;;;;7.70;7.00;;;15.10;99.90;;;;;;6183841;28;20246;-55
2022/05/17 07:07:29;;;;;;;7.93;7.23;;;15.20;99.90;;;;;;6177970;28;20246;-55
2022/05/17 07:13:55;;;;;;;7.93;7.00;;;15.30;99.90;;;;;;6172789;28;20671;-53
2022/05/17 07:16:58;;;;;;;7.50;6.80;;;15.50;99.90;;;;;;6157515;28;20335;-54
2022/05/17 07:20:09;;;;;;;7.20;6.60;;;15.70;99.90;;;;;;6159418;28;20307;-55
2022/05/17 07:23:12;;;;;;;7.63;6.93;;;15.80;99.90;;;;;;6132263;28;20267;-52
2022/05/17 07:26:17;;;;;;;6.87;6.27;;;16.00;99.90;;;;;;6158895;28;20327;-55
2022/05/17 07:29:24;;;;;;;7.67;6.60;;;16.20;99.90;;;;;;6157415;28;20657;-56
2022/05/17 07:32:26;;;;;;;7.40;6.80;;;16.40;99.90;;;;;;6158215;28;20401;-55
2022/05/17 07:35:39;;;;;;;7.60;6.80;;;16.70;99.90;;;;;;6198682;28;20739;-53
2022/05/17 07:38:42;;;;;;;6.30;5.80;;;17.00;99.90;;;;;;6185960;28;20244;-56
2022/05/17 07:41:44;;;;;;;7.60;6.80;;;17.20;99.90;;;;;;6175549;28;20241;-54
2022/05/17 07:44:48;;;;;;;12.07;6.77;;;17.40;99.90;;;;;;6163393;28;20241;-56
2022/05/17 07:47:51;;;;;;;8.90;7.60;;;17.60;99.90;;;;;;6160412;28;20375;-55
2022/05/17 07:50:54;;;;;;;7.40;6.63;;;17.60;99.90;;;;;;6163446;28;20797;-55
2022/05/17 07:53:57;;;;;;;8.70;8.00;;;17.70;99.90;;;;;;6164096;28;20243;-54
2022/05/17 07:56:59;;;;;;;9.43;8.47;;;17.90;99.90;;;;;;6162590;28;20244;-55
2022/05/17 08:00:05;;;;;;;12.10;8.77;;;17.90;99.90;;;;;;6163023;28;20379;-56
2022/05/17 08:03:10;;;;;;;9.53;8.00;;;17.90;99.90;;;;;;6174479;28;20454;-55
2022/05/17 08:06:13;;;;;;;10.33;7.80;;;17.90;99.90;;;;;;6183554;28;20608;-54
2022/05/17 08:09:15;;;;;;;8.77;7.50;;;18.00;99.90;;;;;;6188491;28;20290;-55
2022/05/17 08:12:24;;;;;;;10.53;8.87;;;18.10;99.90;;;;;;6183465;28;20724;-55
2022/05/17 08:15:30;;;;;;;9.37;8.13;;;18.00;99.90;;;;;;6183004;28;20551;-55
2022/05/17 08:18:35;;;;;;;8.67;7.87;;;18.10;99.90;;;;;;6184493;28;20267;-54
2022/05/17 08:21:38;;;;;;;9.40;8.60;;;18.30;99.90;;;;;;6162089;28;20260;-55
2022/05/17 08:28:02;;;;;;;10.17;8.50;;;18.60;99.90;;;;;;6160504;28;20539;-55
2022/05/17 08:31:06;;;;;;;11.57;9.17;;;18.80;99.90;;;;;;6162565;28;20636;-54
2022/05/17 08:34:10;;;;;;;9.70;7.70;;;18.90;99.90;;;;;;6182363;28;20235;-56
2022/05/17 08:37:13;;;;;;;9.13;8.17;;;18.80;99.90;;;;;;6186480;28;20240;-55
2022/05/17 08:40:22;;;;;;;12.33;9.20;;;18.80;99.90;;;;;;6187191;28;20318;-53
2022/05/17 08:43:29;;;;;;;9.20;8.37;;;18.60;99.90;;;;;;6184933;28;20232;-55
2022/05/17 08:46:54;;;;;;;9.43;8.43;;;18.70;99.90;;;;;;6183696;28;20240;-54
2022/05/17 08:50:21;;;;;;;11.40;9.20;;;18.70;99.90;;;;;;6162078;28;20256;-56
2022/05/17 08:53:24;;;;;;;10.33;7.87;;;18.80;99.90;;;;;;6161520;28;20411;-55
2022/05/17 08:56:29;;;;;;;9.67;8.70;;;18.90;99.90;;;;;;6162549;28;20252;-56
2022/05/17 08:59:41;;;;;;;9.07;8.17;;;19.00;99.90;;;;;;6161483;28;20711;-55
2022/05/17 09:02:49;;;;;;;13.23;8.97;;;19.00;99.90;;;;;;6176967;28;20628;-56
2022/05/17 09:05:59;;;;;;;8.60;7.80;;;18.90;99.90;;;;;;6202176;28;20262;-56
2022/05/17 09:09:05;;;;;;;14.10;8.57;;;19.10;99.90;;;;;;6196050;28;20224;-55
2022/05/17 09:12:24;;;;;;;10.23;8.90;;;19.00;99.90;;;;;;6183818;28;20639;-55
2022/05/17 09:15:29;;;;;;;11.03;9.30;;;19.10;99.90;;;;;;6161898;28;20236;-56
2022/05/17 09:18:44;;;;;;;9.07;8.27;;;19.20;99.90;;;;;;6150628;28;20243;-56
2022/05/17 09:21:48;;;;;;;9.70;8.57;;;19.50;99.90;;;;;;6161415;28;20931;-55
2022/05/17 09:24:58;;;;;;;9.67;8.73;;;19.60;99.90;;;;;;6160976;28;20241;-55
2022/05/17 09:28:02;;;;;;;9.10;8.30;;;19.60;99.90;;;;;;6159988;28;20331;-55
2022/05/17 09:31:10;;;;;;;9.77;8.97;;;19.60;99.90;;;;;;6160661;28;20244;-54
2022/05/17 09:34:26;;;;;;;9.80;9.00;;;19.60;99.90;;;;;;6183205;28;20259;-55
2022/05/17 09:37:36;;;;;;;9.07;8.17;;;19.70;99.90;;;;;;6170307;28;20759;-56
2022/05/17 09:40:41;;;;;;;9.47;8.40;;;19.90;99.90;;;;;;6182798;28;20725;-56
2022/05/17 09:43:50;;;;;;;9.53;8.73;;;20.00;99.90;;;;;;6185028;28;20363;-55
2022/05/17 09:46:58;;;;;;;9.90;8.90;;;20.10;99.90;;;;;;6180592;28;20259;-55
2022/05/17 09:53:40;;;;;;;11.00;7.57;;;20.40;99.90;;;;;;6156454;28;20383;-56
2022/05/17 09:56:42;;;;;;;7.83;6.90;;;20.70;99.90;;;;;;6160773;28;20248;-55
2022/05/17 09:59:47;;;;;;;9.20;7.10;;;20.70;99.90;;;;;;6160936;28;20912;-56
2022/05/17 10:02:51;;;;;;;7.30;5.70;;;20.90;99.90;;;;;;6177305;28;20556;-55
2022/05/17 10:05:59;;;;;;;7.57;5.87;;;21.10;99.90;;;;;;6200484;28;20717;-55
2022/05/17 10:09:06;;;;;;;5.63;5.07;;;21.20;99.90;;;;;;6194635;28;20382;-55
2022/05/17 10:12:17;;;;;;;7.00;6.20;;;21.30;83.10;;;;;;6170859;28;20269;-54
2022/05/17 10:15:21;;;;;;;6.03;5.53;;;21.30;66.30;;;;;;6184406;28;20588;-55
2022/05/17 10:18:34;;;;;;;9.90;5.87;;;21.30;53.40;;;;;;6182201;28;20236;-55
2022/05/17 10:21:46;;;;;;;6.83;6.43;;;21.30;21.30;;;;;;6162903;28;20730;-56
2022/05/17 10:24:54;;;;;;;6.10;5.70;;;21.60;1.00;;;;;;6161476;28;20356;-54
2022/05/17 10:28:00;;;;;;;7.87;6.57;;;21.70;1.00;;;;;;6159649;28;20300;-55
2022/05/17 10:31:13;;;;;;;6.20;5.67;;;21.90;1.00;;;;;;6160001;28;20445;-55
2022/05/17 10:34:32;;;;;;;6.63;5.73;;;21.80;10.40;;;;;;6182423;28;20250;-55
2022/05/17 10:37:47;;;;;;;5.83;5.40;;;22.20;4.40;;;;;;6165592;28;20297;-55
2022/05/17 10:40:52;;;;;;;6.43;5.83;;;22.30;1.00;;;;;;6183866;28;20232;-56
2022/05/17 10:43:55;;;;;;;9.90;6.40;;;22.30;1.00;;;;;;6183449;28;20379;-55
2022/05/17 10:47:08;;;;;;;6.97;6.33;;;22.00;1.00;;;;;;6166573;28;20244;-54
2022/05/17 10:50:21;;;;;;;6.70;5.67;;;21.80;1.00;;;;;;6160074;28;20316;-56
2022/05/17 10:53:36;;;;;;;6.90;6.13;;;21.80;1.00;;;;;;6163598;28;20347;-56
2022/05/17 10:56:48;;;;;;;10.83;6.03;;;21.80;1.00;;;;;;6183028;28;20625;-54
2022/05/17 10:59:59;;;;;;;8.27;6.57;;;21.90;1.00;;;;;;6183440;28;20753;-56
2022/05/17 11:03:26;;;;;;;9.67;5.93;;;21.90;1.00;;;;;;6177131;28;20311;-56
2022/05/17 11:06:35;;;;;;;5.73;5.43;;;22.10;1.00;;;;;;6191838;28;20235;-55
2022/05/17 11:09:53;;;;;;;6.17;5.60;;;22.10;1.00;;;;;;6188716;28;20390;-56
2022/05/17 11:13:08;;;;;;;8.70;5.73;;;22.20;1.00;;;;;;6158020;28;20233;-56
2022/05/17 11:16:19;;;;;;;6.07;5.23;;;22.30;1.00;;;;;;6158794;28;20253;-55
2022/05/17 11:19:27;;;;;;;5.43;4.63;;;22.30;1.00;;;;;;6156836;28;20639;-55
2022/05/17 11:22:39;;;;;;;6.13;5.53;;;22.40;1.00;;;;;;6160387;28;20437;-56
2022/05/17 11:25:58;;;;;;;8.37;5.80;;;22.50;1.00;;;;;;6167065;28;20260;-59
2022/05/17 11:29:18;;;;;;;6.90;6.20;;;22.50;1.00;;;;;;6133927;28;20326;-54
2022/05/17 11:32:27;;;;;;;7.83;6.10;;;22.20;1.00;;;;;;6181646;28;20444;-54
2022/05/17 11:35:39;;;;;;;6.73;6.30;;;22.20;1.00;;;;;;6172310;28;20343;-56
2022/05/17 11:38:50;;;;;;;8.23;6.37;;;22.20;1.00;;;;;;6180043;28;20329;-55
2022/05/17 11:42:06;;;;;;;7.30;6.60;;;22.10;1.00;;;;;;6179480;28;20527;-56
2022/05/17 11:45:20;;;;;;;7.97;6.50;;;22.10;1.00;;;;;;6182931;28;20383;-54
2022/05/17 11:48:25;;;;;;;6.13;5.63;;;22.00;1.00;;;;;;6165518;28;20303;-55
2022/05/17 11:51:31;;;;;;;7.00;6.37;;;22.10;1.00;;;;;;6158947;28;20240;-55
2022/05/17 11:54:42;;;;;;;7.07;6.00;;;22.30;1.00;;;;;;6160074;28;20756;-56
2022/05/17 11:57:59;;;;;;;7.20;6.60;;;22.50;1.00;;;;;;6156669;28;20892;-56
2022/05/17 12:01:02;;;;;;;6.30;5.80;;;22.80;1.00;;;;;;6158446;28;20278;-57
2022/05/17 12:04:07;;;;;;;8.07;6.40;;;22.90;1.00;;;;;;6179086;28;20232;-55
2022/05/17 12:07:27;;;;;;;7.73;6.97;;;23.20;1.00;;;;;;6171007;28;20623;-54
2022/05/17 12:10:30;;;;;;;5.97;5.13;;;23.20;1.00;;;;;;6175215;28;20788;-50
2022/05/17 12:13:42;;;;;;;6.47;5.93;;;22.80;1.00;;;;;;6178109;28;20233;-56
2022/05/17 12:17:02;;;;;;;6.57;5.97;;;22.90;1.00;;;;;;6181196;28;20763;-55
2022/05/17 12:20:11;;;;;;;6.37;5.63;;;23.00;1.00;;;;;;6182201;28;20338;-55
2022/05/17 12:23:19;;;;;;;9.17;5.63;;;23.10;1.00;;;;;;6160189;28;20260;-55
2022/05/17 12:26:26;;;;;;;7.23;5.53;;;23.20;1.00;;;;;;6158286;28;20500;-57
2022/05/17 12:33:03;;;;;;;6.67;5.13;;;23.10;1.00;;;;;;6171964;28;20326;-56
2022/05/17 12:36:18;;;;;;;5.63;5.13;;;23.50;1.00;;;;;;6202840;28;20240;-55
2022/05/17 12:43:06;;;;;;;8.27;5.30;;;24.30;1.00;;;;;;6185945;28;20236;-55
2022/05/17 12:46:22;;;;;;;6.77;5.00;;;24.40;1.00;;;;;;6185407;28;20507;-54
2022/05/17 12:49:28;;;;;;;4.80;4.47;;;24.20;1.00;;;;;;6165874;28;20842;-56
2022/05/17 12:52:33;;;;;;;7.00;5.60;;;24.50;1.00;;;;;;6157807;28;20240;-56
2022/05/17 12:55:36;;;;;;;6.63;5.10;;;24.50;1.00;;;;;;6162456;28;20303;-55
2022/05/17 12:58:52;;;;;;;6.07;5.50;;;24.50;1.00;;;;;;6160637;28;20246;-55
2022/05/17 13:01:58;;;;;;;6.13;5.50;;;24.30;1.00;;;;;;6169914;28;20387;-55
2022/05/17 13:05:01;;;;;;;6.30;5.13;;;24.20;1.00;;;;;;6188378;28;20236;-56
2022/05/17 13:08:07;;;;;;;5.83;5.43;;;24.30;1.00;;;;;;6187723;28;20247;-55
2022/05/17 13:11:14;;;;;;;6.10;5.43;;;24.40;1.00;;;;;;6186228;28;20228;-55
2022/05/17 13:14:24;;;;;;;6.83;5.97;;;24.40;1.00;;;;;;6170677;28;20247;-55
2022/05/17 13:17:33;;;;;;;5.80;5.20;;;24.30;1.00;;;;;;6159107;28;20756;-55
2022/05/17 13:20:37;;;;;;;5.90;5.50;;;24.40;1.00;;;;;;6161809;28;20299;-54
2022/05/17 13:23:45;;;;;;;6.03;5.53;;;24.50;1.00;;;;;;6161922;28;20240;-55
2022/05/17 13:27:19;;;;;;;6.03;5.57;;;24.40;1.00;;;;;;6161729;28;20356;-55
2022/05/17 13:30:30;;;;;;;5.57;5.03;;;24.10;1.00;;;;;;6160993;28;20243;-55
2022/05/17 13:33:38;;;;;;;5.40;5.00;;;24.10;1.00;;;;;;6177994;28;20250;-55
2022/05/17 13:36:42;;;;;;;5.00;4.70;;;24.00;1.00;;;;;;6196049;28;20239;-55
2022/05/17 13:39:47;;;;;;;6.27;4.70;;;24.00;1.00;;;;;;6182028;28;20240;-55
2022/05/17 13:42:51;;;;;;;6.40;5.20;;;24.00;1.00;;;;;;6184266;28;20285;-57
2022/05/17 13:46:15;;;;;;;5.70;5.20;;;24.20;1.00;;;;;;6184874;28;20248;-55
2022/05/17 13:49:27;;;;;;;5.30;4.83;;;24.50;1.00;;;;;;6161552;28;20225;-54
2022/05/17 13:52:35;;;;;;;7.17;5.27;;;24.80;1.00;;;;;;6161259;28;20240;-55
2022/05/17 13:55:41;;;;;;;4.87;4.57;;;25.10;1.00;;;;;;6160937;28;20307;-55
2022/05/17 13:58:46;;;;;;;5.47;4.97;;;25.00;1.00;;;;;;6181084;28;20665;-54
2022/05/17 14:01:54;;;;;;;4.90;4.70;;;24.90;1.00;;;;;;6184027;28;20235;-54
2022/05/17 14:05:10;;;;;;;5.97;5.33;;;24.60;1.00;;;;;;6196043;28;20482;-54
2022/05/17 14:11:54;;;;;;;7.80;5.37;;;24.50;1.00;;;;;;6174341;28;20367;-55
2022/05/17 14:14:59;;;;;;;6.43;5.63;;;24.10;1.00;;;;;;6172045;28;20509;-54
2022/05/17 14:18:17;;;;;;;6.03;4.63;;;24.00;1.00;;;;;;6157564;28;20743;-54
2022/05/17 14:21:22;;;;;;;5.20;4.90;;;24.20;1.00;;;;;;6161039;28;20315;-55
2022/05/17 14:24:25;;;;;;;5.10;4.80;;;24.20;1.00;;;;;;6160612;28;20245;-55
2022/05/17 14:27:30;;;;;;;6.47;5.50;;;24.30;1.00;;;;;;6159482;28;20256;-56
2022/05/17 14:30:34;;;;;;;5.00;4.67;;;24.30;1.00;;;;;;6160341;28;20236;-55
2022/05/17 14:33:37;;;;;;;6.67;5.03;;;24.40;1.00;;;;;;6177996;28;20239;-55
2022/05/17 14:36:42;;;;;;;5.57;5.13;;;24.50;1.00;;;;;;6201568;28;20671;-56
2022/05/17 14:39:45;;;;;;;4.80;4.40;;;24.60;1.00;;;;;;6189092;28;20291;-54
2022/05/17 14:42:48;;;;;;;5.03;4.53;;;25.00;1.00;;;;;;6183096;28;20251;-54
2022/05/17 14:45:59;;;;;;;6.53;4.83;;;25.10;1.00;;;;;;6184234;28;20725;-55
2022/05/17 14:49:15;;;;;;;7.40;4.80;;;25.20;1.00;;;;;;6179560;28;20319;-54
2022/05/17 14:52:21;;;;;;;5.17;4.73;;;25.50;1.00;;;;;;6160336;28;20236;-54
2022/05/17 14:55:28;;;;;;;5.47;4.80;;;25.70;1.00;;;;;;6133870;28;20722;-54
2022/05/17 14:58:30;;;;;;;5.70;5.27;;;25.60;1.00;;;;;;6158097;28;20641;-55
2022/05/17 15:01:48;;;;;;;5.30;4.80;;;25.30;1.00;;;;;;6167453;28;20267;-56
2022/05/17 15:04:51;;;;;;;5.40;5.00;;;24.80;1.00;;;;;;6177935;28;20232;-55
2022/05/17 15:08:00;;;;;;;5.40;5.00;;;24.70;1.00;;;;;;6193109;28;20256;-56
2022/05/17 15:11:02;;;;;;;4.80;4.30;;;24.60;1.00;;;;;;6184384;28;20236;-55
2022/05/17 15:14:05;;;;;;;4.80;4.43;;;24.50;1.00;;;;;;6183725;28;20619;-54
2022/05/17 15:17:08;;;;;;;7.47;4.17;;;24.50;1.00;;;;;;6164255;28;20245;-55
2022/05/17 15:20:14;;;;;;;5.10;4.80;;;24.50;1.00;;;;;;6159082;28;20709;-51
2022/05/17 15:23:20;;;;;;;5.37;4.77;;;24.40;1.00;;;;;;6159252;28;20481;-54
2022/05/17 15:26:25;;;;;;;4.90;4.67;;;24.40;1.00;;;;;;6159718;28;20240;-56
2022/05/17 15:29:28;;;;;;;4.87;4.67;;;24.40;1.00;;;;;;6158312;28;20237;-56
2022/05/17 15:32:31;;;;;;;5.27;4.97;;;24.30;1.00;;;;;;6159962;28;20282;-55
2022/05/17 15:35:36;;;;;;;5.30;4.93;;;24.30;1.00;;;;;;6184427;28;20244;-56
2022/05/17 15:38:40;;;;;;;5.10;4.70;;;24.20;1.00;;;;;;6180600;28;20264;-54
2022/05/17 15:41:44;;;;;;;5.07;4.70;;;24.20;1.00;;;;;;6168898;28;20320;-54
2022/05/17 15:44:46;;;;;;;5.77;5.30;;;24.10;1.00;;;;;;6159193;28;20335;-54
2022/05/17 15:54:33;;;;;;;4.80;4.60;;;23.70;1.00;;;;;;6161039;28;20247;-54
2022/05/17 15:57:36;;;;;;;4.90;4.70;;;23.50;1.00;;;;;;6131915;28;20328;-52
2022/05/17 16:00:40;;;;;;;5.40;4.80;;;23.40;1.00;;;;;;6158597;28;20237;-54
2022/05/17 16:03:48;;;;;;;5.37;4.97;;;23.10;1.00;;;;;;6177665;28;20326;-55
2022/05/17 16:06:52;;;;;;;4.80;4.60;;;23.10;1.00;;;;;;6192407;28;20440;-54
2022/05/17 16:09:56;;;;;;;4.77;4.37;;;23.00;1.00;;;;;;6188672;28;20272;-56
2022/05/17 16:13:02;;;;;;;4.93;4.63;;;23.10;1.00;;;;;;6183474;28;20264;-55
2022/05/17 16:16:07;;;;;;;5.23;4.73;;;23.30;1.00;;;;;;6183643;28;20240;-55
2022/05/17 16:19:15;;;;;;;5.27;4.80;;;23.40;1.00;;;;;;6160644;28;20381;-54
2022/05/17 16:22:19;;;;;;;5.80;5.03;;;23.40;1.00;;;;;;6163596;28;21069;-56
2022/05/17 16:25:24;;;;;;;6.13;5.53;;;23.50;1.00;;;;;;6163664;28;20237;-55
2022/05/17 16:28:27;;;;;;;5.00;4.70;;;23.60;1.00;;;;;;6162277;28;20340;-56
2022/05/17 16:31:30;;;;;;;6.67;5.57;;;23.50;1.00;;;;;;6162870;28;20797;-54
2022/05/17 16:34:36;;;;;;;5.67;5.27;;;23.60;1.00;;;;;;6187012;28;20228;-55
2022/05/17 16:37:39;;;;;;;8.67;5.40;;;23.40;1.00;;;;;;6169139;28;20266;-53
2022/05/17 16:40:47;;;;;;;6.90;5.37;;;23.50;1.00;;;;;;6187721;28;20659;-54
2022/05/17 16:43:49;;;;;;;5.93;5.00;;;23.60;1.00;;;;;;6173913;28;20302;-54
2022/05/17 16:46:53;;;;;;;6.30;5.17;;;23.60;1.00;;;;;;6159989;28;20251;-57